Time;durP1;ratioP1;P1;durP2;ratioP2;P2;SDS_P1;SDS_P2;PMS_P1;PMS_P2;Temp;Humidity;BMP_temperature;BMP_pressure;BME280_temperature;BME280_humidity;BME280_pressure;Samples;Min_cycle;Max_cycle;Signal;HPM_P1;HPM_P2
2022/01/18 00:00:03;;;;;;;;;13.00;11.50;7.80;50.40;;;;;;5064666;28;8788;-68
2022/01/18 00:02:29;;;;;;;;;16.75;14.50;7.70;50.50;;;;;;5074048;28;8776;-68
2022/01/18 00:04:55;;;;;;;;;16.25;11.75;7.30;51.70;;;;;;5074100;28;8776;-69
2022/01/18 00:07:21;;;;;;;;;6.00;6.00;7.50;52.10;;;;;;5074121;28;8772;-68
2022/01/18 00:09:48;;;;;;;;;9.25;9.25;7.40;52.70;;;;;;5074045;28;8772;-68
2022/01/18 00:12:43;;;;;;;;;5.00;5.00;7.10;54.30;;;;;;5074074;28;8799;-67
2022/01/18 00:17:53;;;;;;;;;5.75;5.75;7.20;54.50;;;;;;5074101;28;8760;-66
2022/01/18 00:20:34;;;;;;;;;6.50;5.50;7.40;53.40;;;;;;5057798;28;8782;-69
2022/01/18 00:23:00;;;;;;;;;11.00;11.00;7.30;54.00;;;;;;5054185;28;8794;-69
2022/01/18 00:25:25;;;;;;;;;14.50;11.75;7.20;54.10;;;;;;5053865;28;8790;-69
2022/01/18 00:27:51;;;;;;;;;10.25;10.25;7.50;54.30;;;;;;5053863;28;8779;-68
2022/01/18 00:31:18;;;;;;;;;11.25;11.25;7.60;52.70;;;;;;5054883;28;8755;-68
2022/01/18 00:33:26;;;;;;;;;6.25;6.25;7.40;52.60;;;;;;5057440;28;9687;-67
2022/01/18 00:36:02;;;;;;;;;4.25;4.25;7.20;53.50;;;;;;5057784;28;8844;-68
2022/01/18 00:38:43;;;;;;;;;5.50;5.50;7.00;54.10;;;;;;5057579;28;8783;-68
2022/01/18 00:41:09;;;;;;;;;7.75;7.75;6.80;54.60;;;;;;5057749;28;9393;-68
2022/01/18 00:43:35;;;;;;;;;3.00;3.00;6.70;55.60;;;;;;5057511;28;8778;-68
2022/01/18 00:46:01;;;;;;;;;5.75;5.75;6.60;55.10;;;;;;5057540;28;8836;-69
2022/01/18 00:48:32;;;;;;;;;6.00;6.00;6.50;54.70;;;;;;5057504;28;8774;-68
2022/01/18 00:50:58;;;;;;;;;5.50;5.00;6.60;54.70;;;;;;5057278;28;8798;-67
2022/01/18 00:53:25;;;;;;;;;6.25;6.25;6.60;54.60;;;;;;5057541;28;8791;-69
2022/01/18 00:56:06;;;;;;;;;6.00;6.00;6.90;53.70;;;;;;5057156;28;8806;-69
2022/01/18 00:58:32;;;;;;;;;5.00;3.50;6.90;53.20;;;;;;5057188;28;8770;-69
2022/01/18 01:00:57;;;;;;;;;3.50;3.50;6.80;53.10;;;;;;5057230;28;8873;-67
2022/01/18 01:03:24;;;;;;;;;4.00;2.25;6.30;53.80;;;;;;5057312;28;8767;-69
2022/01/18 01:05:50;;;;;;;;;3.00;3.00;6.10;55.90;;;;;;5057080;28;8786;-68
2022/01/18 01:08:16;;;;;;;;;6.50;6.50;6.40;54.30;;;;;;5056984;28;8882;-68
2022/01/18 01:10:42;;;;;;;;;5.50;5.50;6.50;53.70;;;;;;5056917;28;8882;-68
2022/01/18 01:13:09;;;;;;;;;6.00;5.00;6.40;53.60;;;;;;5056678;28;8819;-69
2022/01/18 01:15:50;;;;;;;;;5.00;5.00;6.60;53.00;;;;;;5056752;28;8818;-69
2022/01/18 01:18:36;;;;;;;;;6.50;6.50;6.70;52.00;;;;;;5056851;28;8751;-69
2022/01/18 01:34:53;;;;;;;;;8.00;8.00;7.10;50.20;;;;;;5056446;28;8795;-70
2022/01/18 01:45:20;;;;;;;;;6.25;6.25;6.60;51.80;;;;;;5056340;28;8869;-70
2022/01/18 01:47:50;;;;;;;;;10.00;7.50;6.40;52.00;;;;;;5056241;28;8948;-68
2022/01/18 01:50:20;;;;;;;;;10.25;7.50;6.60;52.40;;;;;;5056194;28;8779;-70
2022/01/18 01:52:51;;;;;;;;;9.00;8.50;6.60;52.30;;;;;;5056273;28;8799;-70
2022/01/18 01:55:18;;;;;;;;;9.00;9.00;6.60;52.20;;;;;;5056296;28;8829;-69
2022/01/18 01:57:45;;;;;;;;;10.00;8.50;6.70;52.00;;;;;;5056313;28;9445;-67
2022/01/18 02:00:16;;;;;;;;;9.00;9.00;6.90;51.30;;;;;;5055939;28;8763;-69
2022/01/18 02:02:42;;;;;;;;;8.00;8.00;6.90;51.30;;;;;;5056245;28;9483;-67
2022/01/18 02:05:09;;;;;;;;;5.75;5.25;7.00;50.90;;;;;;5056083;28;8885;-69
2022/01/18 02:07:35;;;;;;;;;7.50;7.00;6.90;51.20;;;;;;5056015;28;9569;-67
2022/01/18 02:10:02;;;;;;;;;7.00;7.00;7.10;50.50;;;;;;5055738;28;8885;-71
2022/01/18 02:12:28;;;;;;;;;5.75;3.00;7.00;51.10;;;;;;5055581;28;8834;-69
2022/01/18 02:14:58;;;;;;;;;7.00;7.00;6.80;51.20;;;;;;5055536;28;8813;-70
2022/01/18 02:22:56;;;;;;;;;9.00;7.25;5.50;55.70;;;;;;5055743;28;8767;-69
2022/01/18 02:25:23;;;;;;;;;6.00;6.00;5.60;56.20;;;;;;5055844;28;8759;-70
2022/01/18 02:27:48;;;;;;;;;3.00;3.00;5.40;56.40;;;;;;5055466;28;8868;-70
2022/01/18 02:30:15;;;;;;;;;4.25;4.25;5.40;56.90;;;;;;5055686;28;8767;-68
2022/01/18 02:32:40;;;;;;;;;8.25;6.00;5.50;56.20;;;;;;5055666;28;8799;-69
2022/01/18 02:35:07;;;;;;;;;6.75;6.75;5.60;56.00;;;;;;5055257;28;8815;-69
2022/01/18 02:37:33;;;;;;;;;10.25;6.50;5.70;55.90;;;;;;5055235;28;8771;-68
2022/01/18 02:39:59;;;;;;;;;8.75;8.00;5.80;55.70;;;;;;5055195;28;8812;-68
2022/01/18 02:42:30;;;;;;;;;6.50;6.50;6.00;55.00;;;;;;5055211;28;8775;-70
2022/01/18 02:44:56;;;;;;;;;6.00;4.50;6.20;54.10;;;;;;5055145;28;8875;-69
2022/01/18 02:47:23;;;;;;;;;3.00;3.00;6.10;54.30;;;;;;5055363;28;8770;-70
2022/01/18 02:49:50;;;;;;;;;4.75;3.25;6.10;54.40;;;;;;5055026;28;8791;-68
2022/01/18 02:52:16;;;;;;;;;5.00;2.00;5.80;55.10;;;;;;5054923;28;8782;-70
2022/01/18 02:54:43;;;;;;;;;5.25;5.25;5.50;57.10;;;;;;5055026;28;9882;-68
2022/01/18 02:57:15;;;;;;;;;6.25;5.50;5.30;57.10;;;;;;5054905;28;8848;-68
2022/01/18 02:59:47;;;;;;;;;3.00;3.00;5.30;57.60;;;;;;5054918;28;8801;-69
2022/01/18 03:05:08;;;;;;;;;7.25;5.00;5.60;55.80;;;;;;5054854;28;8743;-68
2022/01/18 03:07:33;;;;;;;;;7.50;7.50;5.70;56.00;;;;;;5054722;28;8782;-69
2022/01/18 03:09:59;;;;;;;;;5.00;5.00;5.60;55.40;;;;;;5054953;28;8779;-68
2022/01/18 03:12:25;;;;;;;;;3.50;3.50;5.50;56.40;;;;;;5054518;28;8895;-70
2022/01/18 03:14:51;;;;;;;;;5.00;5.00;5.30;56.90;;;;;;5054710;28;8799;-69
2022/01/18 03:17:17;;;;;;;;;5.75;5.00;5.20;57.70;;;;;;5054667;28;8854;-70
2022/01/18 03:19:43;;;;;;;;;9.00;9.00;5.60;56.70;;;;;;5054571;28;8788;-69
2022/01/18 03:22:09;;;;;;;;;7.00;7.00;5.80;55.90;;;;;;5054436;28;8811;-69
2022/01/18 03:24:47;;;;;;;;;8.75;8.75;6.00;55.00;;;;;;5054497;28;8795;-70
2022/01/18 03:30:03;;;;;;;;;10.00;10.00;5.70;55.40;;;;;;5074226;28;8756;-70
2022/01/18 03:32:29;;;;;;;;;6.25;6.25;5.80;55.00;;;;;;5074672;28;9458;-68
2022/01/18 03:34:55;;;;;;;;;6.25;4.75;5.80;54.80;;;;;;5074637;28;8800;-70
2022/01/18 03:37:21;;;;;;;;;5.50;5.50;5.90;54.40;;;;;;5074463;28;8776;-71
2022/01/18 03:39:46;;;;;;;;;5.25;5.25;5.60;55.30;;;;;;5074620;28;8790;-70
2022/01/18 03:45:02;;;;;;;;;6.00;6.00;5.80;54.50;;;;;;5074415;28;8760;-70
2022/01/18 03:47:28;;;;;;;;;6.75;5.00;5.70;54.10;;;;;;5074401;28;8760;-70
2022/01/18 03:49:53;;;;;;;;;6.00;6.00;5.90;53.30;;;;;;5074262;28;8841;-70
2022/01/18 03:52:19;;;;;;;;;5.25;3.50;5.50;54.20;;;;;;5074300;28;8796;-70
2022/01/18 03:54:47;;;;;;;;;6.75;5.00;5.40;54.70;;;;;;5074210;28;8788;-70
2022/01/18 03:57:14;;;;;;;;;6.00;5.00;5.60;54.30;;;;;;5074548;28;8879;-69
2022/01/18 03:59:40;;;;;;;;;4.00;4.00;5.80;53.90;;;;;;5074173;28;8787;-70
2022/01/18 04:02:07;;;;;;;;;10.25;8.25;6.00;53.30;;;;;;5074203;28;8753;-70
2022/01/18 04:04:34;;;;;;;;;5.50;5.50;6.20;52.50;;;;;;5074365;28;8795;-69
2022/01/18 04:07:00;;;;;;;;;7.25;6.25;6.00;52.10;;;;;;5078351;28;9422;-69
2022/01/18 04:09:26;;;;;;;;;9.00;9.00;6.10;52.30;;;;;;5078099;28;8879;-68
2022/01/18 04:11:53;;;;;;;;;9.00;6.75;6.10;52.10;;;;;;5077898;28;8800;-69
2022/01/18 04:14:19;;;;;;;;;7.50;6.75;6.00;52.00;;;;;;5077919;28;8799;-69
2022/01/18 04:17:01;;;;;;;;;8.00;8.00;6.10;51.50;;;;;;5077967;28;8757;-67
2022/01/18 04:27:25;;;;;;;;;7.00;6.00;5.50;52.80;;;;;;5077860;28;9473;-67
2022/01/18 04:29:51;;;;;;;;;6.75;5.75;5.40;53.40;;;;;;5077686;28;8891;-68
2022/01/18 04:32:16;;;;;;;;;11.50;5.75;5.10;54.00;;;;;;5077643;28;8780;-68
2022/01/18 04:34:42;;;;;;;;;4.25;4.25;4.70;56.00;;;;;;5077529;28;8803;-68
2022/01/18 04:37:08;;;;;;;;;4.00;4.00;4.50;57.00;;;;;;5077586;28;8787;-68
2022/01/18 04:39:38;;;;;;;;;6.50;5.75;4.40;57.60;;;;;;5077686;28;8744;-68
2022/01/18 04:42:12;;;;;;;;;10.00;7.25;4.30;57.90;;;;;;5077434;28;8845;-68
2022/01/18 04:50:07;;;;;;;;;4.50;4.50;4.20;58.50;;;;;;5077468;28;8745;-67
2022/01/18 04:52:33;;;;;;;;;6.50;6.50;4.20;58.30;;;;;;5077564;28;8792;-68
2022/01/18 04:55:01;;;;;;;;;8.50;8.50;4.10;59.10;;;;;;5077194;28;8792;-68
2022/01/18 05:00:28;;;;;;;;;6.50;6.50;4.10;59.20;;;;;;5074981;28;8910;-69
2022/01/18 05:02:54;;;;;;;;;6.00;5.00;4.30;58.70;;;;;;5074878;28;8778;-70
2022/01/18 05:05:26;;;;;;;;;3.50;3.50;4.20;58.90;;;;;;5075014;28;8895;-69
2022/01/18 05:07:53;;;;;;;;;6.00;6.00;4.40;58.20;;;;;;5074924;28;8770;-69
2022/01/18 05:10:25;;;;;;;;;5.00;5.00;4.40;58.30;;;;;;5074854;28;8838;-70
2022/01/18 05:12:53;;;;;;;;;5.00;5.00;4.40;58.00;;;;;;5074683;28;8802;-68
2022/01/18 05:23:22;;;;;;;;;17.50;12.00;4.30;58.30;;;;;;5074694;28;8798;-69
2022/01/18 05:25:48;;;;;;;;;11.75;10.50;4.30;58.60;;;;;;5074616;28;8863;-69
2022/01/18 05:28:14;;;;;;;;;10.25;10.25;4.30;58.50;;;;;;5074387;28;8778;-70
2022/01/18 05:30:41;;;;;;;;;10.75;9.50;4.10;58.80;;;;;;5074497;28;8754;-69
2022/01/18 05:33:08;;;;;;;;;10.00;9.50;4.10;59.30;;;;;;5074418;28;9472;-68
2022/01/18 05:35:34;;;;;;;;;13.00;13.00;4.20;59.20;;;;;;5076256;28;8815;-66
2022/01/18 05:38:00;;;;;;;;;12.25;11.00;4.40;57.90;;;;;;5076461;28;8845;-67
2022/01/18 05:40:27;;;;;;;;;9.50;9.50;4.40;57.90;;;;;;5076673;28;8761;-69
2022/01/18 05:42:53;;;;;;;;;10.50;10.50;4.60;57.60;;;;;;5076320;28;9445;-68
2022/01/18 05:45:18;;;;;;;;;8.50;8.50;4.80;56.90;;;;;;5076303;28;8853;-67
2022/01/18 05:47:44;;;;;;;;;16.50;15.50;4.90;56.50;;;;;;5076452;28;8871;-68
2022/01/18 05:50:12;;;;;;;;;8.25;7.00;4.70;57.20;;;;;;5076150;28;8780;-67
2022/01/18 05:52:38;;;;;;;;;15.00;12.25;4.70;57.20;;;;;;5076142;28;8816;-68
2022/01/18 05:55:05;;;;;;;;;9.50;9.50;4.80;57.10;;;;;;5075684;28;8816;-67
2022/01/18 05:57:31;;;;;;;;;10.75;9.75;4.80;56.70;;;;;;5076609;28;8768;-67
2022/01/18 06:00:03;;;;;;;;;13.75;12.00;4.60;57.00;;;;;;5076005;28;8898;-68
2022/01/18 06:07:45;;;;;;;;;6.00;6.00;4.10;58.30;;;;;;5076011;28;8737;-67
2022/01/18 06:10:11;;;;;;;;;3.00;3.00;3.80;59.90;;;;;;5075843;28;8985;-67
2022/01/18 06:12:36;;;;;;;;;4.25;4.00;3.60;60.50;;;;;;5075615;28;8812;-67
2022/01/18 06:15:03;;;;;;;;;7.50;6.50;3.60;60.60;;;;;;5075681;28;8800;-68
2022/01/18 06:17:29;;;;;;;;;6.00;6.00;3.80;60.20;;;;;;5075755;28;8791;-67
2022/01/18 06:19:54;;;;;;;;;8.25;6.50;3.90;59.50;;;;;;5075653;28;8768;-68
2022/01/18 06:22:20;;;;;;;;;8.00;8.00;3.60;60.50;;;;;;5075647;28;8808;-68
2022/01/18 06:24:46;;;;;;;;;7.25;6.50;3.60;60.60;;;;;;5075521;28;9437;-68
2022/01/18 06:27:12;;;;;;;;;6.00;6.00;3.70;60.50;;;;;;5075428;28;8807;-69
2022/01/18 06:29:38;;;;;;;;;8.75;6.50;3.70;60.20;;;;;;5075062;28;8883;-68
2022/01/18 06:32:06;;;;;;;;;7.00;7.00;3.60;60.40;;;;;;5075321;28;8769;-68
2022/01/18 06:34:32;;;;;;;;;7.25;6.25;3.60;60.40;;;;;;5075257;28;8845;-67
2022/01/18 06:36:58;;;;;;;;;9.75;6.50;3.70;60.20;;;;;;5075334;28;8741;-67
2022/01/18 06:39:23;;;;;;;;;9.50;5.75;3.80;59.80;;;;;;5075298;28;8776;-67
2022/01/18 06:41:49;;;;;;;;;9.75;7.25;3.60;60.50;;;;;;5075170;28;8760;-67
2022/01/18 06:44:15;;;;;;;;;3.25;2.00;3.80;60.60;;;;;;5075265;28;8745;-68
2022/01/18 06:46:41;;;;;;;;;7.00;7.00;4.00;60.30;;;;;;5075361;28;8756;-69
2022/01/18 06:49:07;;;;;;;;;9.75;8.50;4.00;59.80;;;;;;5075296;28;9525;-69
2022/01/18 06:51:35;;;;;;;;;8.50;6.00;4.10;59.50;;;;;;5075126;28;8780;-69
2022/01/18 06:54:01;;;;;;;;;12.00;12.00;4.70;57.90;;;;;;5075365;28;8788;-68
2022/01/18 06:56:26;;;;;;;;;8.75;8.75;4.20;58.60;;;;;;5074879;28;9454;-67
2022/01/18 06:58:54;;;;;;;;;14.50;12.00;4.10;59.40;;;;;;5074315;28;8853;-68
2022/01/18 07:01:20;;;;;;;;;13.00;10.00;4.10;59.30;;;;;;5074965;28;9462;-70
2022/01/18 07:03:50;;;;;;;;;9.75;9.75;4.10;59.70;;;;;;5075150;28;8780;-67
2022/01/18 07:06:16;;;;;;;;;7.50;7.50;4.00;60.00;;;;;;5074961;28;8806;-67
2022/01/18 07:08:42;;;;;;;;;9.25;9.25;4.00;60.20;;;;;;5072930;28;8776;-67
2022/01/18 07:11:08;;;;;;;;;12.25;12.25;3.90;60.70;;;;;;5074706;28;8815;-67
2022/01/18 07:13:35;;;;;;;;;11.50;10.00;3.90;60.80;;;;;;5074487;28;8824;-67
2022/01/18 07:16:02;;;;;;;;;10.50;9.25;3.80;61.20;;;;;;5074675;28;8808;-67
2022/01/18 07:18:28;;;;;;;;;8.00;8.00;4.20;60.70;;;;;;5074903;28;9398;-67
2022/01/18 07:20:55;;;;;;;;;9.25;7.00;4.10;60.00;;;;;;5074510;28;8942;-68
2022/01/18 07:23:22;;;;;;;;;6.25;6.25;4.20;60.20;;;;;;5074834;28;8811;-69
2022/01/18 07:25:48;;;;;;;;;8.00;8.00;4.50;59.60;;;;;;5074543;28;8780;-73
2022/01/18 07:28:17;;;;;;;;;9.00;8.00;4.30;60.10;;;;;;5074495;28;8772;-68
2022/01/18 07:30:44;;;;;;;;;8.75;8.75;4.20;61.00;;;;;;5074517;28;8760;-68
2022/01/18 07:33:12;;;;;;;;;8.00;7.00;4.30;60.90;;;;;;5074457;28;8875;-65
2022/01/18 07:35:38;;;;;;;;;12.50;11.00;4.30;61.00;;;;;;5074283;28;8823;-66
2022/01/18 07:38:05;;;;;;;;;10.75;9.50;4.30;61.70;;;;;;5074246;28;8838;-65
2022/01/18 07:40:32;;;;;;;;;12.75;10.00;4.30;61.80;;;;;;5073541;28;9438;-65
2022/01/18 07:43:01;;;;;;;;;11.75;10.00;4.30;61.70;;;;;;5074571;28;8814;-65
2022/01/18 07:45:28;;;;;;;;;14.50;12.75;4.30;62.10;;;;;;5074485;28;8753;-65
2022/01/18 07:47:54;;;;;;;;;11.25;10.00;4.60;61.80;;;;;;5074590;28;8772;-65
2022/01/18 07:50:20;;;;;;;;;10.00;10.00;4.40;62.20;;;;;;5074523;28;8844;-66
2022/01/18 07:52:46;;;;;;;;;14.75;13.00;4.40;62.20;;;;;;5074088;28;9438;-65
2022/01/18 07:55:12;;;;;;;;;13.00;9.75;4.30;62.70;;;;;;5074084;28;8808;-65
2022/01/18 07:57:42;;;;;;;;;13.00;13.00;4.20;63.20;;;;;;5074133;28;8752;-64
2022/01/18 08:00:15;;;;;;;;;11.25;10.50;4.20;63.20;;;;;;5074180;28;8871;-65
2022/01/18 08:02:42;;;;;;;;;8.00;6.00;4.00;63.70;;;;;;5074479;28;9421;-65
2022/01/18 08:05:10;;;;;;;;;14.75;14.75;4.20;63.70;;;;;;5074390;28;8760;-66
2022/01/18 08:07:36;;;;;;;;;12.25;12.25;4.50;62.60;;;;;;5074136;28;8753;-64
2022/01/18 08:10:05;;;;;;;;;14.00;13.50;4.20;63.70;;;;;;5074326;28;8769;-66
2022/01/18 08:12:31;;;;;;;;;16.00;14.00;4.20;63.20;;;;;;5073111;28;8805;-66
2022/01/18 08:15:02;;;;;;;;;19.00;15.00;4.20;63.70;;;;;;5072822;28;9567;-65
2022/01/18 08:17:29;;;;;;;;;16.50;12.75;4.20;63.80;;;;;;5072887;28;8838;-65
2022/01/18 08:19:54;;;;;;;;;12.75;11.25;4.40;62.80;;;;;;5072667;28;8798;-64
2022/01/18 08:22:21;;;;;;;;;14.50;14.00;4.60;62.60;;;;;;5069930;28;8780;-65
2022/01/18 08:24:47;;;;;;;;;14.50;13.00;4.50;62.20;;;;;;5072890;28;9409;-64
2022/01/18 08:27:13;;;;;;;;;15.00;13.75;4.60;61.70;;;;;;5072725;28;8775;-65
2022/01/18 08:29:39;;;;;;;;;13.50;11.75;4.80;60.50;;;;;;5072218;28;8765;-64
2022/01/18 08:32:06;;;;;;;;;13.50;13.50;4.70;61.00;;;;;;5072215;28;8749;-66
2022/01/18 08:34:32;;;;;;;;;11.75;9.75;4.70;61.00;;;;;;5072199;28;8741;-65
2022/01/18 08:36:59;;;;;;;;;15.50;15.50;4.70;60.60;;;;;;5072073;28;8879;-63
2022/01/18 08:39:25;;;;;;;;;13.50;12.75;4.50;62.00;;;;;;5072577;28;8785;-69
2022/01/18 08:41:51;;;;;;;;;10.50;10.50;4.80;61.10;;;;;;5073188;28;8857;-69
2022/01/18 08:44:16;;;;;;;;;14.00;12.50;4.80;60.30;;;;;;5072889;28;8777;-68
2022/01/18 08:46:43;;;;;;;;;13.00;12.75;4.70;61.50;;;;;;5072507;28;8784;-70
2022/01/18 08:49:08;;;;;;;;;16.50;12.75;4.80;60.80;;;;;;5072572;28;8911;-71
2022/01/18 08:51:35;;;;;;;;;12.75;12.00;4.90;60.20;;;;;;5073847;28;8875;-70
2022/01/18 08:54:03;;;;;;;;;16.75;13.25;4.90;58.80;;;;;;5076346;28;8827;-68
2022/01/18 08:56:29;;;;;;;;;13.25;13.00;4.80;59.70;;;;;;5075961;28;8816;-71
2022/01/18 08:58:56;;;;;;;;;13.50;12.00;4.90;58.80;;;;;;5073483;28;9403;-70
2022/01/18 09:01:22;;;;;;;;;14.50;12.50;4.90;58.80;;;;;;5075874;28;8768;-68
2022/01/18 09:03:49;;;;;;;;;14.00;13.25;5.00;58.30;;;;;;5075872;28;8772;-70
2022/01/18 09:06:17;;;;;;;;;3.00;1.75;5.00;58.20;;;;;;5073112;28;8763;-69
2022/01/18 09:08:43;;;;;;;;;12.25;12.25;4.80;58.80;;;;;;5075533;28;8935;-70
2022/01/18 09:11:13;;;;;;;;;15.25;13.00;4.70;59.10;;;;;;5075536;28;8887;-67
2022/01/18 09:13:40;;;;;;;;;23.75;22.75;5.00;58.70;;;;;;5073466;28;8913;-66
2022/01/18 09:16:09;;;;;;;;;18.75;14.75;5.00;58.10;;;;;;5076749;28;8792;-68
2022/01/18 09:18:36;;;;;;;;;14.75;14.75;5.00;58.30;;;;;;5076786;28;8781;-72
2022/01/18 09:21:02;;;;;;;;;22.50;20.75;5.10;57.70;;;;;;5076901;28;8777;-72
2022/01/18 09:23:28;;;;;;;;;13.50;13.50;5.60;56.80;;;;;;5076874;28;9430;-72
2022/01/18 09:25:54;;;;;;;;;16.50;15.25;5.60;54.60;;;;;;5074572;28;9491;-69
2022/01/18 09:28:20;;;;;;;;;24.75;20.50;5.50;54.80;;;;;;5061141;28;8772;-68
2022/01/18 09:30:46;;;;;;;;;25.00;16.75;6.10;53.80;;;;;;5064984;28;8793;-71
2022/01/18 09:33:12;;;;;;;;;18.75;17.25;6.50;52.90;;;;;;5065765;28;8783;-69
2022/01/18 09:35:38;;;;;;;;;10.50;10.50;6.80;51.50;;;;;;5069304;28;9443;-70
2022/01/18 09:38:05;;;;;;;;;23.00;21.75;6.60;51.00;;;;;;5072937;28;8871;-76
2022/01/18 09:40:36;;;;;;;;;17.75;15.50;6.60;51.00;;;;;;5076450;28;8768;-72
2022/01/18 09:43:08;;;;;;;;;25.00;22.25;6.80;50.30;;;;;;5075806;28;8764;-70
2022/01/18 09:45:34;;;;;;;;;23.25;22.00;6.90;49.70;;;;;;5065024;28;8768;-70
2022/01/18 09:48:02;;;;;;;;;34.00;30.75;6.50;49.70;;;;;;5069591;28;8768;-70
2022/01/18 09:50:31;;;;;;;;;26.25;24.75;6.50;49.30;;;;;;5069013;28;8805;-71
2022/01/18 09:52:58;;;;;;;;;26.25;23.50;6.60;49.10;;;;;;5064283;28;8816;-70
2022/01/18 09:55:27;;;;;;;;;33.75;29.25;7.00;48.70;;;;;;5058113;28;9464;-70
2022/01/18 09:57:54;;;;;;;;;17.50;14.50;7.40;47.90;;;;;;5064458;28;8787;-69
2022/01/18 10:00:22;;;;;;;;;20.00;19.25;7.50;47.00;;;;;;5075877;28;8861;-70
2022/01/18 10:02:48;;;;;;;;;13.75;13.75;7.70;46.40;;;;;;5075085;28;8788;-70
2022/01/18 10:05:34;;;;;;;;;15.75;12.50;8.00;46.00;;;;;;5076134;28;8810;-73
2022/01/18 10:08:12;;;;;;;;;17.50;17.00;7.70;45.80;;;;;;5075967;28;8769;-68
2022/01/18 10:10:46;;;;;;;;;25.25;20.75;7.60;46.90;;;;;;5075389;28;9496;-67
2022/01/18 10:13:24;;;;;;;;;23.75;20.75;8.10;45.90;;;;;;5075527;28;8989;-67
2022/01/18 10:16:11;;;;;;;;;17.50;16.50;7.80;46.30;;;;;;5073927;28;8815;-69
2022/01/18 10:18:49;;;;;;;;;22.50;20.25;7.90;46.20;;;;;;5055929;28;8794;-70
2022/01/18 10:21:44;;;;;;;;;18.00;17.25;8.40;45.40;;;;;;5055905;28;8874;-74
2022/01/18 10:24:20;;;;;;;;;14.00;11.50;9.20;43.00;;;;;;5055555;28;8900;-71
2022/01/18 10:26:48;;;;;;;;;14.67;12.67;10.00;40.40;;;;;;5054818;28;8763;-69
2022/01/18 10:29:15;;;;;;;;;17.33;15.00;14.90;36.00;;;;;;5055376;28;8763;-70
2022/01/18 10:34:27;;;;;;;;;13.67;12.33;17.20;28.10;;;;;;5055264;28;8856;-66
2022/01/18 10:37:02;;;;;;;;;17.00;17.00;13.70;30.80;;;;;;5062051;28;8827;-71
2022/01/18 10:39:34;;;;;;;;;25.33;19.00;14.00;33.10;;;;;;5061208;28;8822;-69
2022/01/18 10:42:12;;;;;;;;;17.00;15.33;12.50;34.50;;;;;;5063781;28;8756;-64
2022/01/18 10:44:38;;;;;;;;;19.00;17.67;15.20;33.50;;;;;;5058880;28;8803;-66
2022/01/18 10:47:04;;;;;;;;;20.00;19.33;17.10;29.70;;;;;;5065267;28;8803;-60
2022/01/18 10:49:48;;;;;;;;;18.33;16.33;17.50;30.60;;;;;;5065242;28;8846;-61
2022/01/18 10:52:24;;;;;;;;;14.33;14.00;19.80;27.50;;;;;;5058215;28;8815;-64
2022/01/18 10:54:54;;;;;;;;;13.50;12.75;20.00;26.50;;;;;;5061627;28;11486;-66
2022/01/18 10:57:23;;;;;;;;;11.67;10.00;21.10;24.50;;;;;;5054442;28;12157;-64
2022/01/18 10:59:56;;;;;;;;;14.00;13.00;17.40;26.70;;;;;;5057126;28;11503;-68
2022/01/18 11:02:21;;;;;;;;;17.33;17.33;17.50;27.70;;;;;;5071420;28;8776;-68
2022/01/18 11:04:58;;;;;;;;;7.67;6.33;20.20;27.10;;;;;;5074553;28;11576;-69
2022/01/18 11:07:27;;;;;;;;;17.67;15.67;17.70;28.40;;;;;;5062115;28;8886;-68
2022/01/18 11:09:54;;;;;;;;;13.00;13.00;20.90;26.90;;;;;;5064709;28;11475;-69
2022/01/18 11:12:24;;;;;;;;;16.00;16.00;23.00;23.80;;;;;;5067635;28;11575;-70
2022/01/18 11:15:04;;;;;;;;;14.75;13.25;22.10;24.00;;;;;;5053649;28;11498;-72
2022/01/18 11:17:38;;;;;;;;;8.25;8.25;22.00;24.60;;;;;;5063587;28;11524;-69
2022/01/18 11:20:06;;;;;;;;;10.75;10.75;23.00;23.40;;;;;;5074357;28;11486;-68
2022/01/18 11:22:32;;;;;;;;;4.25;4.25;24.30;23.30;;;;;;5074078;28;11535;-73
2022/01/18 11:24:58;;;;;;;;;9.75;9.75;25.30;20.60;;;;;;5074621;28;11440;-70
2022/01/18 11:27:28;;;;;;;;;9.00;9.00;19.80;23.60;;;;;;5065691;28;11478;-70
2022/01/18 11:29:53;;;;;;;;;6.00;6.00;19.60;26.50;;;;;;5064751;28;12522;-69
2022/01/18 11:32:24;;;;;;;;;8.75;8.75;21.20;23.60;;;;;;5073531;28;11440;-70
2022/01/18 11:35:11;;;;;;;;;15.25;15.25;19.60;25.70;;;;;;5073982;28;8765;-69
2022/01/18 11:38:03;;;;;;;;;12.75;12.75;24.20;23.30;;;;;;5073576;28;11584;-69
2022/01/18 11:40:49;;;;;;;;;13.75;13.75;27.20;20.50;;;;;;5073390;28;11514;-69
2022/01/18 11:43:43;;;;;;;;;6.00;6.00;28.60;20.20;;;;;;5064804;28;11474;-69
2022/01/18 11:46:23;;;;;;;;;9.00;9.00;26.70;18.90;;;;;;5066019;28;11622;-69
2022/01/18 11:49:04;;;;;;;;;5.25;5.25;22.70;21.60;;;;;;5064037;28;11463;-66
2022/01/18 11:51:36;;;;;;;;;7.75;7.75;16.40;29.90;;;;;;5065007;28;11468;-69
2022/01/18 11:54:20;;;;;;;;;4.75;4.75;20.90;26.30;;;;;;5060356;28;11451;-69
2022/01/18 11:56:46;;;;;;;;;14.00;14.00;20.00;25.70;;;;;;5063788;28;11454;-70
2022/01/18 11:59:15;;;;;;;;;13.25;13.25;23.00;23.10;;;;;;5063955;28;11468;-69
2022/01/18 12:01:50;;;;;;;;;16.50;16.50;20.80;23.70;;;;;;5071005;28;11541;-69
2022/01/18 12:04:54;;;;;;;;;17.00;17.00;19.30;24.30;;;;;;5069700;28;11517;-70
2022/01/18 12:07:38;;;;;;;;;17.00;14.67;15.60;28.70;;;;;;5070555;28;11475;-70
2022/01/18 12:10:06;;;;;;;;;14.00;13.67;13.40;33.10;;;;;;5068582;28;9395;-68
2022/01/18 12:12:41;;;;;;;;;18.00;16.33;12.70;33.20;;;;;;5066561;28;9616;-72
2022/01/18 12:15:33;;;;;;;;;16.33;15.67;12.10;35.30;;;;;;5072429;28;8924;-73
2022/01/18 12:18:03;;;;;;;;;15.33;12.00;16.30;30.30;;;;;;5048551;28;8991;-72
2022/01/18 12:20:40;;;;;;;;;10.00;9.33;20.80;26.20;;;;;;5053704;28;12125;-72
2022/01/18 12:23:11;;;;;;;;;15.67;14.67;15.70;28.40;;;;;;5053587;28;11494;-71
2022/01/18 12:26:01;;;;;;;;;23.67;20.00;19.90;26.90;;;;;;5053502;28;8791;-71
2022/01/18 12:34:28;;;;;;;;;27.00;22.33;12.30;34.40;;;;;;5059951;28;8862;-72
2022/01/18 12:37:07;;;;;;;;;25.00;25.00;16.40;32.40;;;;;;5062915;28;8833;-70
2022/01/18 12:39:55;;;;;;;;;38.00;31.00;15.50;29.70;;;;;;5057289;28;8790;-70
2022/01/18 12:45:23;;;;;;;;;27.33;25.67;12.70;34.80;;;;;;5069203;28;8796;-69
2022/01/18 12:47:55;;;;;;;;;28.67;26.67;14.60;33.50;;;;;;5076971;28;8781;-72
2022/01/18 12:50:25;;;;;;;;;26.00;24.00;14.00;33.20;;;;;;5068929;28;8803;-72
2022/01/18 12:53:01;;;;;;;;;20.33;17.33;15.00;33.70;;;;;;5059384;28;8804;-71
2022/01/18 12:55:54;;;;;;;;;26.33;21.33;14.80;32.40;;;;;;5061591;28;8825;-77
2022/01/18 12:58:25;;;;;;;;;18.33;18.33;16.70;31.50;;;;;;5057043;28;8787;-71
2022/01/18 13:01:00;;;;;;;;;20.00;18.33;19.00;27.60;;;;;;5059920;28;8771;-69
2022/01/18 13:03:35;;;;;;;;;21.00;20.67;18.00;28.50;;;;;;5067463;28;8783;-70
2022/01/18 13:06:04;;;;;;;;;26.33;25.67;21.10;27.30;;;;;;5071227;28;8782;-75
2022/01/18 13:08:49;;;;;;;;;32.33;31.00;24.30;23.80;;;;;;5065487;28;8807;-67
2022/01/18 13:11:22;;;;;;;;;15.67;15.67;24.40;22.60;;;;;;5061834;28;11592;-67
2022/01/18 13:14:04;;;;;;;;;21.67;20.33;20.90;24.20;;;;;;5058841;28;11676;-66
2022/01/18 13:27:28;;;;;;;;;23.00;21.67;11.30;38.90;;;;;;5061344;28;8759;-63
2022/01/18 13:30:09;;;;;;;;;24.00;22.33;10.80;38.80;;;;;;5068201;28;8780;-64
2022/01/18 13:32:36;;;;;;;;;30.25;27.00;10.70;40.30;;;;;;5071907;28;8869;-64
2022/01/18 13:35:04;;;;;;;;;35.75;32.00;10.40;40.10;;;;;;5074604;28;8839;-64
2022/01/18 13:37:33;;;;;;;;;34.25;30.75;10.60;40.10;;;;;;5073952;28;8756;-66
2022/01/18 13:40:02;;;;;;;;;14.33;13.33;11.30;38.80;;;;;;5075031;28;8773;-65
2022/01/18 13:42:39;;;;;;;;;13.00;11.33;11.50;37.70;;;;;;5074997;28;8781;-65
2022/01/18 13:45:25;;;;;;;;;15.00;14.00;10.50;39.60;;;;;;5075125;28;9422;-66
2022/01/18 13:47:59;;;;;;;;;19.00;18.00;10.90;38.90;;;;;;5072119;28;8737;-65
2022/01/18 13:50:40;;;;;;;;;24.33;20.67;11.70;38.20;;;;;;5073708;28;8786;-65
2022/01/18 13:53:12;;;;;;;;;26.33;24.67;11.70;38.30;;;;;;5073845;28;8801;-64
2022/01/18 13:55:48;;;;;;;;;26.33;25.00;11.90;39.00;;;;;;5074568;28;8862;-65
2022/01/18 13:58:19;;;;;;;;;22.00;22.00;11.40;38.00;;;;;;5072328;28;8760;-71
2022/01/18 14:00:45;;;;;;;;;20.67;20.67;11.30;39.30;;;;;;5074449;28;8757;-67
2022/01/18 14:03:27;;;;;;;;;23.33;21.33;11.20;39.00;;;;;;5071806;28;8772;-66
2022/01/18 14:05:52;;;;;;;;;30.00;25.00;10.80;39.90;;;;;;5071679;28;9414;-68
2022/01/18 14:08:18;;;;;;;;;20.75;20.50;11.10;39.80;;;;;;5069170;28;8954;-70
2022/01/18 14:10:44;;;;;;;;;29.50;28.00;11.20;39.80;;;;;;5071870;28;9573;-68
2022/01/18 14:13:27;;;;;;;;;24.25;24.25;11.30;39.30;;;;;;5074289;28;8807;-68
2022/01/18 14:15:53;;;;;;;;;19.00;17.00;10.90;39.40;;;;;;5075466;28;8799;-72
2022/01/18 14:18:19;;;;;;;;;13.00;13.00;9.90;41.30;;;;;;5075528;28;8780;-76
2022/01/18 14:20:45;;;;;;;;;18.50;16.50;9.80;42.20;;;;;;5075693;28;8780;-73
2022/01/18 14:23:20;;;;;;;;;20.25;17.00;10.00;41.80;;;;;;5075569;28;8815;-71
2022/01/18 14:25:48;;;;;;;;;27.00;26.50;9.90;41.70;;;;;;5075524;28;8776;-71
2022/01/18 14:28:17;;;;;;;;;26.75;26.75;10.00;42.20;;;;;;5075464;28;8793;-70
2022/01/18 14:30:44;;;;;;;;;33.00;29.00;10.20;41.60;;;;;;5075161;28;8753;-69
2022/01/18 14:33:11;;;;;;;;;23.75;21.50;10.10;42.00;;;;;;5075217;28;8853;-69
2022/01/18 14:35:39;;;;;;;;;25.75;25.50;10.10;41.30;;;;;;5074269;28;9442;-68